Airfield :
LOGIN :

Register | Disclaimer

   EN    FR    IT 

 










Legend :    VFR   Marginal VFR   IFR   Intensive IFR   Very Intensive IFR
Visi :
Ceiling :
>= 8 km
>= 3000ft
5 to 8 km
1000 to 3000 ft
1500m to 5 km
500 to 1000 ft
800 to 1500m
200 to 500 ft
< 800m
< 200 ft
Symbols :   Thunderstorms  Fog  Heavy snow  Heavy precipitations  Wind > 20 kt
SIGMETs :     Misc.  Thunderstorms  Icing  Turbulence  Mountain Waves  Volcanic Ashes







- Airport Elevation : 1766 ft


ETHL - Laupheim AB

CURRENT METAR :
  • 281620Z 22007KT 9999 FEW028 SCT060 20/13 Q1017 BLU+

EXPIRED METARs :
  • 281520Z 23008KT 9999 FEW040 SCT060 20/14 Q1017 BLU+
  • 281420Z 25010KT 9999 FEW040 SCT060 20/12 Q1017 BLU+

TAF AMD TAF ETHL
Valid from the 28 at 08:00 until the 28 at 17:00 UTC


280949Z 2808/2817 25012KT 9999 -RA SCT015 BKN040 BKN090 CANCEL 1000
No reported NOTAMs for that airfield.



MET'MAP, your aeronautical weather chart ! - Copyright ORBIFLY December 2007 - Disclaimer

ORBIFLY MET'MAP TEAM :

Programming & Development : Alexandra Zaïnal
Concept & Development : Baudouin d'Aumeries
Co-Development & Prog : Marc-Olivier Méhu
Technical & hardware support : Manuel Goepfert

Contact : metmap@orbifly.com




SOURCES & CREDITS :

   NOAA